Ana Sayfa
METAR-TAF:

METAR-TAF

Havaalanları :

Wilbarger County Airport

Vernon, Teksas, Amerika Birleşik Devletleri

Enlem: 34-13-32N, Boylam: 099-17-01W, yükseklik: 386 m

Güncel hava durumu gözlemi

Rapor saat 09:55 UTC de 11 dakika önce yapıldı.
Rüzgar kuzey/kuzeydoğudan 7 kt
Sıcaklık 27°C
Nem 58%
Basınç 1017 hPa
Görüş mesafesi: 16.1 km
Açık gökyüzü

METAR: KF05 220955Z AUTO 03007KT 10SM CLR 27/18 A3002 RMK AO1 T02700180

Saat: 05:06 (10:06 UTC)


TAF: eksik

4.000'den fazla havaalanı için hava durumu gözlemleri ve tahminleri (METAR ve TAF raporları).

Kullanılabilir istasyonlar harita üzerinde sarı ve kırmızı noktalarla gösterilir.

İstasyonun adını görmek için fareyi noktanın üzerinde gezdirin.

Sonrasında hava gözlem ve tahminlerini görmek için tıklayın.

Haritayı değiştirmek için: yaklaştırmak için siyah artı işaretli yeşil düğmeye ve uzaklaştırmak için de eksi işaretli düğmeye hızla tıklayın; bitişik haritalar için yeşil okları kullanın.


METAR-TAF: